createdAt,value
2017-11-13T00:01:25.335Z,6.53
2017-11-13T00:03:54.252Z,6.60
2017-11-13T00:06:23.090Z,7.07
2017-11-13T00:08:51.912Z,6.47
2017-11-13T00:11:20.751Z,6.67
2017-11-13T00:13:49.605Z,7.00
2017-11-13T00:16:18.494Z,7.80
2017-11-13T00:18:47.333Z,8.80
2017-11-13T00:21:16.304Z,7.17
2017-11-13T00:23:45.123Z,7.43
2017-11-13T00:26:13.946Z,7.70
2017-11-13T00:28:42.908Z,7.60
2017-11-13T00:31:11.734Z,9.03
2017-11-13T00:33:40.606Z,8.10
2017-11-13T00:36:09.441Z,7.80
2017-11-13T00:38:38.306Z,9.20
2017-11-13T00:41:07.211Z,9.57
2017-11-13T00:43:36.072Z,9.97
2017-11-13T00:46:04.896Z,9.93
2017-11-13T00:48:33.720Z,9.97
2017-11-13T00:51:02.654Z,9.40
2017-11-13T00:53:31.551Z,10.33
2017-11-13T00:56:00.380Z,10.43
2017-11-13T00:58:29.222Z,9.70
2017-11-13T01:00:58.164Z,9.00
2017-11-13T01:03:27.843Z,10.27
2017-11-13T01:05:57.416Z,8.50
2017-11-13T01:08:26.991Z,11.43
2017-11-13T01:10:56.564Z,9.10
2017-11-13T01:13:25.404Z,9.60
2017-11-13T01:15:54.222Z,9.63
2017-11-13T01:18:23.047Z,8.70
2017-11-13T01:20:51.883Z,10.23
2017-11-13T01:23:20.707Z,8.70
2017-11-13T01:25:49.540Z,9.83
2017-11-13T01:28:18.429Z,10.63
2017-11-13T01:30:47.300Z,9.90
2017-11-13T01:33:16.125Z,7.70
2017-11-13T01:35:44.979Z,8.20
2017-11-13T01:38:13.855Z,9.13
2017-11-13T01:40:42.676Z,9.03
2017-11-13T01:43:11.550Z,9.23
2017-11-13T01:45:40.368Z,7.70
2017-11-13T01:48:09.193Z,8.97
2017-11-13T01:50:38.031Z,9.80
2017-11-13T01:53:06.856Z,9.53
2017-11-13T01:55:35.680Z,9.63
2017-11-13T01:58:04.525Z,9.37
2017-11-13T02:00:33.355Z,9.03
2017-11-13T02:03:02.171Z,8.13
2017-11-13T02:05:31.016Z,10.43
2017-11-13T02:07:59.927Z,8.90
2017-11-13T02:10:29.181Z,8.60
2017-11-13T02:12:58.758Z,9.90
2017-11-13T02:15:28.551Z,11.60
2017-11-13T02:17:58.131Z,9.20
2017-11-13T02:20:28.455Z,8.37
2017-11-13T02:22:58.026Z,11.07
2017-11-13T02:25:27.598Z,8.03
2017-11-13T02:27:56.430Z,8.93
2017-11-13T02:30:25.259Z,9.50
2017-11-13T02:32:54.143Z,9.27
2017-11-13T02:35:23.036Z,9.70
2017-11-13T02:37:51.864Z,8.70
2017-11-13T02:40:20.695Z,10.47
2017-11-13T02:42:49.528Z,9.17
2017-11-13T02:45:18.371Z,10.40
2017-11-13T02:47:47.225Z,10.07
2017-11-13T02:50:16.139Z,11.50
2017-11-13T02:52:44.975Z,10.80
2017-11-13T02:55:13.825Z,10.13
2017-11-13T02:57:42.673Z,11.50
2017-11-13T03:00:11.597Z,10.83
2017-11-13T03:02:40.443Z,9.97
2017-11-13T03:05:09.380Z,10.10
2017-11-13T03:07:38.202Z,12.13
2017-11-13T03:10:07.028Z,9.20
2017-11-13T03:12:35.879Z,9.47
2017-11-13T03:15:04.703Z,7.63
2017-11-13T03:17:33.527Z,11.07
2017-11-13T03:20:02.367Z,10.27
2017-11-13T03:22:31.195Z,9.43
2017-11-13T03:25:01.334Z,11.10
2017-11-13T03:27:30.337Z,8.90
2017-11-13T03:30:00.015Z,9.00
2017-11-13T03:32:29.592Z,7.63
2017-11-13T03:34:59.176Z,9.27
2017-11-13T03:37:29.472Z,10.20
2017-11-13T03:39:59.045Z,9.93
2017-11-13T03:42:28.620Z,10.00
2017-11-13T03:44:57.440Z,9.13
2017-11-13T03:47:26.320Z,9.60
2017-11-13T03:49:55.224Z,9.60
2017-11-13T03:52:24.048Z,10.03
2017-11-13T03:54:52.884Z,9.23
2017-11-13T03:57:21.704Z,9.30
2017-11-13T03:59:50.594Z,8.93
2017-11-13T04:02:19.444Z,8.70
2017-11-13T04:04:48.267Z,9.13
2017-11-13T04:07:17.092Z,9.40
2017-11-13T04:09:45.932Z,9.27
2017-11-13T04:12:14.819Z,10.50
2017-11-13T04:14:43.640Z,9.40
2017-11-13T04:17:12.489Z,11.27
2017-11-13T04:19:41.326Z,10.20
2017-11-13T04:22:10.883Z,13.30
2017-11-13T04:24:39.735Z,12.17
2017-11-13T04:27:08.685Z,12.10
2017-11-13T04:29:37.590Z,14.00
2017-11-13T04:32:06.426Z,10.40
2017-11-13T04:34:35.255Z,15.77
2017-11-13T04:37:04.079Z,9.90
2017-11-13T04:39:32.967Z,10.40
2017-11-13T04:42:01.793Z,9.40
2017-11-13T04:44:31.448Z,10.63
2017-11-13T04:47:01.032Z,10.30
2017-11-13T04:49:30.616Z,20.03
2017-11-13T04:52:00.184Z,12.40
2017-11-13T04:54:29.029Z,10.47
2017-11-13T04:56:57.860Z,10.90
2017-11-13T04:59:26.720Z,11.20
2017-11-13T05:01:55.642Z,9.77
2017-11-13T05:04:24.472Z,11.97
2017-11-13T05:06:53.391Z,9.43
2017-11-13T05:09:22.239Z,11.87
2017-11-13T05:11:51.066Z,12.80
2017-11-13T05:14:19.907Z,10.83
2017-11-13T05:16:48.751Z,11.90
2017-11-13T05:19:17.651Z,12.40
2017-11-13T05:21:46.476Z,11.43
2017-11-13T05:24:15.331Z,12.20
2017-11-13T05:26:44.159Z,10.80
2017-11-13T05:29:12.989Z,12.70
2017-11-13T05:31:41.836Z,11.70
2017-11-13T05:34:10.691Z,12.03
2017-11-13T05:36:39.553Z,11.03
2017-11-13T05:39:08.420Z,13.40
2017-11-13T05:41:37.316Z,11.30
2017-11-13T05:44:06.254Z,14.43
2017-11-13T05:46:35.101Z,11.20
2017-11-13T05:49:04.060Z,14.90
2017-11-13T05:51:32.891Z,12.23
2017-11-13T05:54:02.484Z,11.40
2017-11-13T05:56:32.148Z,11.63
2017-11-13T05:59:01.722Z,11.77
2017-11-13T06:01:31.293Z,13.70
2017-11-13T06:04:00.146Z,13.00
2017-11-13T06:06:29.435Z,15.37
2017-11-13T06:08:58.264Z,12.30
2017-11-13T06:11:27.092Z,12.63
2017-11-13T06:13:55.939Z,14.83
2017-11-13T06:16:24.979Z,15.80
2017-11-13T06:18:53.830Z,14.50
2017-11-13T06:21:22.679Z,14.53
2017-11-13T06:23:51.583Z,14.33
2017-11-13T06:26:20.413Z,11.60
2017-11-13T06:28:49.257Z,16.93
2017-11-13T06:31:18.087Z,13.20
2017-11-13T06:33:47.025Z,14.23
2017-11-13T06:36:15.870Z,14.67
2017-11-13T06:38:44.695Z,13.50
2017-11-13T06:41:13.522Z,16.17
2017-11-13T06:43:42.364Z,15.57
2017-11-13T06:46:11.206Z,14.27
2017-11-13T06:48:40.056Z,13.77
2017-11-13T06:51:08.904Z,13.97
2017-11-13T06:53:37.730Z,14.73
2017-11-13T06:56:06.570Z,12.70
2017-11-13T06:58:35.420Z,13.70
2017-11-13T07:01:04.251Z,11.07
2017-11-13T07:03:33.858Z,13.87
2017-11-13T07:06:03.504Z,12.80
2017-11-13T07:08:33.096Z,12.20
2017-11-13T07:11:02.692Z,15.00
2017-11-13T07:13:31.527Z,12.37
2017-11-13T07:16:00.368Z,11.53
2017-11-13T07:18:29.229Z,12.10
2017-11-13T07:20:58.066Z,12.20
2017-11-13T07:23:26.887Z,11.67
2017-11-13T07:25:55.939Z,11.17
2017-11-13T07:28:24.783Z,10.27
2017-11-13T07:30:53.691Z,11.03
2017-11-13T07:33:22.517Z,10.73
2017-11-13T07:35:51.376Z,9.60
2017-11-13T07:38:20.204Z,9.63
2017-11-13T07:40:49.042Z,10.40
2017-11-13T07:43:17.887Z,10.03
2017-11-13T07:45:46.835Z,11.83
2017-11-13T07:48:15.663Z,11.40
2017-11-13T07:50:44.504Z,9.00
2017-11-13T07:53:13.330Z,9.30
2017-11-13T07:55:42.160Z,8.90
2017-11-13T07:58:11.180Z,10.63
2017-11-13T08:00:40.080Z,12.07
2017-11-13T08:03:09.048Z,8.83
2017-11-13T08:05:37.880Z,9.20
2017-11-13T08:08:06.744Z,9.70
2017-11-13T08:10:35.565Z,8.97
2017-11-13T08:13:05.143Z,10.97
2017-11-13T08:15:34.713Z,9.37
2017-11-13T08:18:04.291Z,7.63
2017-11-13T08:20:33.884Z,8.27
2017-11-13T08:23:02.707Z,9.43
2017-11-13T08:25:31.533Z,7.50
2017-11-13T08:28:00.386Z,9.00
2017-11-13T08:30:29.224Z,10.00
2017-11-13T08:32:58.064Z,8.97
2017-11-13T08:35:26.911Z,9.27
2017-11-13T08:37:55.791Z,8.80
2017-11-13T08:40:24.719Z,10.57
2017-11-13T08:42:53.717Z,7.93
2017-11-13T08:45:22.582Z,8.63
2017-11-13T08:47:51.402Z,7.70
2017-11-13T08:50:20.246Z,8.60
2017-11-13T08:52:49.075Z,8.47
2017-11-13T08:55:17.904Z,8.53
2017-11-13T08:57:46.745Z,8.77
2017-11-13T09:00:15.570Z,6.60
2017-11-13T09:02:44.396Z,9.93
2017-11-13T09:05:13.232Z,8.80
2017-11-13T09:07:42.098Z,9.73
2017-11-13T09:10:10.916Z,7.90
2017-11-13T09:12:39.751Z,7.23
2017-11-13T09:15:08.596Z,9.93
2017-11-13T09:17:37.424Z,8.70
2017-11-13T09:20:06.517Z,7.80
2017-11-13T09:22:36.083Z,7.90
2017-11-13T09:25:05.652Z,7.20
2017-11-13T09:27:35.239Z,8.70
2017-11-13T09:30:04.819Z,7.00
2017-11-13T09:32:34.370Z,6.93
2017-11-13T09:35:03.251Z,5.20
2017-11-13T09:37:32.090Z,5.70
2017-11-13T09:40:00.935Z,7.17
2017-11-13T09:42:29.775Z,5.10
2017-11-13T09:44:58.619Z,5.20
2017-11-13T09:47:27.447Z,4.20
2017-11-13T09:49:56.290Z,4.40
2017-11-13T09:52:25.182Z,4.07
2017-11-13T09:54:54.021Z,5.90
2017-11-13T09:57:22.860Z,4.50
2017-11-13T09:59:51.688Z,3.93
2017-11-13T10:02:20.578Z,3.50
2017-11-13T10:04:49.706Z,2.87
2017-11-13T10:07:18.544Z,4.43
2017-11-13T10:09:47.427Z,3.30
2017-11-13T10:12:16.267Z,2.50
2017-11-13T10:14:45.096Z,2.70
2017-11-13T10:17:13.919Z,3.20
2017-11-13T10:19:42.767Z,2.93
2017-11-13T10:22:11.599Z,3.53
2017-11-13T10:24:41.308Z,3.27
2017-11-13T10:27:10.149Z,2.93
2017-11-13T10:29:38.983Z,4.07
2017-11-13T10:32:07.825Z,3.03
2017-11-13T10:34:37.407Z,3.53
2017-11-13T10:37:07.006Z,2.10
2017-11-13T10:39:36.618Z,2.23
2017-11-13T10:42:06.201Z,2.43
2017-11-13T10:44:35.026Z,2.80
2017-11-13T10:47:03.857Z,1.80
2017-11-13T10:49:32.793Z,2.20
2017-11-13T10:52:01.616Z,2.70
2017-11-13T10:54:30.455Z,2.13
2017-11-13T10:56:59.292Z,2.40
2017-11-13T10:59:28.118Z,2.30
2017-11-13T11:01:56.940Z,2.30
2017-11-13T11:04:25.784Z,2.50
2017-11-13T11:06:54.618Z,1.70
2017-11-13T11:09:23.444Z,2.30
2017-11-13T11:11:52.275Z,2.43
2017-11-13T11:14:31.032Z,2.10
2017-11-13T11:17:00.633Z,2.10
2017-11-13T11:19:33.016Z,2.70
2017-11-13T11:22:02.783Z,2.33
2017-11-13T11:24:31.631Z,2.13
2017-11-13T11:27:10.375Z,2.20
2017-11-13T11:29:57.864Z,1.73
2017-11-13T11:32:29.427Z,2.60
2017-11-13T11:35:14.069Z,3.20
2017-11-13T11:37:46.801Z,4.93
2017-11-13T11:40:15.624Z,1.77
2017-11-13T11:42:44.451Z,1.90
2017-11-13T11:45:19.945Z,2.70
2017-11-13T11:48:03.661Z,3.03
2017-11-13T11:50:32.499Z,1.93
2017-11-13T11:53:01.321Z,2.90
2017-11-13T11:55:32.987Z,2.70
2017-11-13T11:58:01.809Z,1.87
2017-11-13T12:00:30.635Z,1.40
2017-11-13T12:02:59.576Z,2.03
2017-11-13T12:05:28.417Z,1.60
2017-11-13T12:07:57.282Z,2.30
2017-11-13T12:10:26.117Z,2.30
2017-11-13T12:12:54.946Z,2.60
2017-11-13T12:15:23.764Z,3.33
2017-11-13T12:17:52.599Z,1.97
2017-11-13T12:20:21.430Z,2.00
2017-11-13T12:22:50.305Z,1.90
2017-11-13T12:25:19.136Z,2.00
2017-11-13T12:27:47.958Z,1.50
2017-11-13T12:30:16.807Z,2.27
2017-11-13T12:32:45.651Z,1.83
2017-11-13T12:35:14.484Z,2.70
2017-11-13T12:37:43.317Z,2.37
2017-11-13T12:40:12.156Z,4.40
2017-11-13T12:42:41.030Z,3.10
2017-11-13T12:45:10.127Z,2.80
2017-11-13T12:47:39.705Z,4.27
2017-11-13T12:50:09.276Z,3.93
2017-11-13T12:52:38.847Z,2.83
2017-11-13T12:55:08.408Z,3.77
2017-11-13T12:57:37.237Z,3.07
2017-11-13T13:00:06.090Z,2.83
2017-11-13T13:02:34.978Z,3.83
2017-11-13T13:05:03.807Z,4.50
2017-11-13T13:07:32.666Z,3.30
2017-11-13T13:10:01.501Z,3.57
2017-11-13T13:12:30.331Z,3.90
2017-11-13T13:14:59.185Z,3.93
2017-11-13T13:17:28.018Z,4.33
2017-11-13T13:19:56.842Z,3.23
2017-11-13T13:22:25.678Z,3.37
2017-11-13T13:24:54.499Z,3.20
2017-11-13T13:27:23.414Z,3.50
2017-11-13T13:29:52.250Z,3.03
2017-11-13T13:32:21.076Z,3.40
2017-11-13T13:34:49.906Z,2.90
2017-11-13T13:37:18.738Z,2.70
2017-11-13T13:39:47.556Z,4.17
2017-11-13T13:42:18.340Z,3.17
2017-11-13T13:44:47.188Z,3.67
2017-11-13T13:47:16.084Z,2.97
2017-11-13T13:49:44.904Z,4.10
2017-11-13T13:52:13.743Z,3.30
2017-11-13T13:54:42.660Z,3.83
2017-11-13T13:57:11.484Z,4.43
2017-11-13T13:59:41.067Z,3.30
2017-11-13T14:02:10.633Z,4.70
2017-11-13T14:04:40.266Z,3.93
2017-11-13T14:07:09.878Z,3.83
2017-11-13T14:09:39.435Z,3.50
2017-11-13T14:12:08.264Z,3.87
2017-11-13T14:14:37.174Z,5.30
2017-11-13T14:17:05.999Z,4.47
2017-11-13T14:19:34.841Z,3.80
2017-11-13T14:22:03.683Z,3.03
2017-11-13T14:24:32.529Z,2.50
2017-11-13T14:27:01.370Z,6.17
2017-11-13T14:29:30.225Z,3.40
2017-11-13T14:31:59.091Z,2.97
2017-11-13T14:34:27.937Z,3.13
2017-11-13T14:36:56.793Z,4.53
2017-11-13T14:39:25.664Z,3.97
2017-11-13T14:41:54.494Z,5.90
2017-11-13T14:44:23.341Z,4.43
2017-11-13T14:46:52.168Z,2.70
2017-11-13T14:49:21.018Z,1.90
2017-11-13T14:51:49.847Z,3.27
2017-11-13T14:54:18.674Z,3.70
2017-11-13T14:56:47.504Z,3.30
2017-11-13T14:59:16.395Z,3.00
2017-11-13T15:01:45.218Z,3.17
2017-11-13T15:04:14.064Z,3.23
2017-11-13T15:06:42.891Z,2.30
2017-11-13T15:09:12.458Z,3.50
2017-11-13T15:11:42.078Z,3.50
2017-11-13T15:14:11.671Z,5.10
2017-11-13T15:16:41.267Z,3.93
2017-11-13T15:19:11.027Z,3.20
2017-11-13T15:21:39.851Z,3.10
2017-11-13T15:24:08.689Z,4.03
2017-11-13T15:26:37.541Z,21.63
2017-11-13T15:29:06.362Z,3.47
2017-11-13T15:31:35.248Z,6.33
2017-11-13T15:34:04.151Z,7.23
2017-11-13T15:36:32.972Z,4.27
2017-11-13T15:39:01.782Z,3.30
2017-11-13T15:41:30.627Z,3.20
2017-11-13T15:43:59.492Z,3.47
2017-11-13T15:46:28.312Z,5.30
2017-11-13T15:48:57.170Z,5.10
2017-11-13T15:51:26.005Z,4.47
2017-11-13T15:53:54.851Z,5.93
2017-11-13T15:56:23.691Z,4.97
2017-11-13T15:58:52.515Z,4.30
2017-11-13T16:01:21.339Z,4.80
2017-11-13T16:03:50.211Z,4.00
2017-11-13T16:06:19.095Z,5.10
2017-11-13T16:08:47.928Z,2.10
2017-11-13T16:11:16.761Z,3.90
2017-11-13T16:13:45.587Z,3.50
2017-11-13T16:16:14.445Z,3.03
2017-11-13T16:18:43.924Z,3.90
2017-11-13T16:21:13.579Z,6.67
2017-11-13T16:23:43.174Z,2.73
2017-11-13T16:26:12.795Z,4.80
2017-11-13T16:28:42.370Z,4.37
2017-11-13T16:31:11.196Z,4.40
2017-11-13T16:33:40.044Z,4.10
2017-11-13T16:36:08.868Z,3.57
2017-11-13T16:38:37.701Z,4.90
2017-11-13T16:41:06.636Z,3.43
2017-11-13T16:43:35.465Z,4.60
2017-11-13T16:46:04.327Z,5.23
2017-11-13T16:48:33.171Z,4.17
2017-11-13T16:51:01.996Z,4.40
2017-11-13T16:53:30.815Z,3.93
2017-11-13T16:55:59.659Z,5.50
2017-11-13T16:58:28.575Z,5.60
2017-11-13T17:00:57.400Z,5.43
2017-11-13T17:03:26.236Z,6.43
2017-11-13T17:05:55.085Z,5.10
2017-11-13T17:08:23.907Z,5.20
2017-11-13T17:10:52.745Z,7.83
2017-11-13T17:13:21.570Z,10.60
2017-11-13T17:15:50.401Z,7.87
2017-11-13T17:18:19.243Z,5.53
2017-11-13T17:20:48.076Z,7.17
2017-11-13T17:23:16.914Z,9.13
2017-11-13T17:25:45.758Z,6.67
2017-11-13T17:28:15.330Z,10.30
2017-11-13T17:30:44.950Z,10.30
2017-11-13T17:33:14.585Z,9.53
2017-11-13T17:35:44.156Z,6.43
2017-11-13T17:38:13.740Z,7.90
2017-11-13T17:40:42.575Z,10.33
2017-11-13T17:43:11.508Z,7.00
2017-11-13T17:45:40.345Z,8.77
2017-11-13T17:48:09.176Z,12.50
2017-11-13T17:50:38.003Z,12.50
2017-11-13T17:53:06.896Z,10.83
2017-11-13T17:55:35.741Z,7.37
2017-11-13T17:58:04.620Z,6.20
2017-11-13T18:00:33.496Z,7.57
2017-11-13T18:03:02.323Z,6.10
2017-11-13T18:05:31.167Z,6.63
2017-11-13T18:08:00.037Z,6.10
2017-11-13T18:10:28.863Z,4.80
2017-11-13T18:12:57.709Z,6.07
2017-11-13T18:15:26.584Z,6.17
2017-11-13T18:17:55.420Z,6.40
2017-11-13T18:20:24.243Z,7.20
2017-11-13T18:22:53.076Z,9.17
2017-11-13T18:25:21.903Z,7.47
2017-11-13T18:27:50.728Z,6.30
2017-11-13T18:30:19.567Z,6.80
2017-11-13T18:32:48.515Z,5.43
2017-11-13T18:35:17.341Z,5.50
2017-11-13T18:37:46.938Z,6.13
2017-11-13T18:40:16.587Z,5.93
2017-11-13T18:42:46.180Z,5.97
2017-11-13T18:45:15.771Z,4.20
2017-11-13T18:47:45.363Z,5.53
2017-11-13T18:50:14.403Z,7.63
2017-11-13T18:52:43.317Z,11.00
2017-11-13T18:55:12.316Z,7.30
2017-11-13T18:57:41.219Z,4.67
2017-11-13T19:00:10.055Z,5.00
2017-11-13T19:02:38.882Z,8.37
2017-11-13T19:05:07.729Z,7.50
2017-11-13T19:07:36.667Z,7.23
2017-11-13T19:10:05.498Z,8.17
2017-11-13T19:12:34.355Z,8.63
2017-11-13T19:15:03.240Z,5.47
2017-11-13T19:17:32.070Z,6.30
2017-11-13T19:20:00.894Z,8.20
2017-11-13T19:22:29.816Z,8.43
2017-11-13T19:24:58.644Z,8.00
2017-11-13T19:27:27.466Z,9.60
2017-11-13T19:29:56.313Z,8.70
2017-11-13T19:32:25.244Z,9.07
2017-11-13T19:34:54.069Z,10.53
2017-11-13T19:37:22.911Z,12.00
2017-11-13T19:39:52.072Z,13.27
2017-11-13T19:42:20.908Z,9.97
2017-11-13T19:44:49.756Z,7.87
2017-11-13T19:47:18.982Z,12.57
2017-11-13T19:49:48.579Z,11.83
2017-11-13T19:52:18.165Z,10.43
2017-11-13T19:54:48.462Z,9.27
2017-11-13T19:57:18.152Z,19.37
2017-11-13T19:59:47.727Z,17.33
2017-11-13T20:02:17.400Z,10.70
2017-11-13T20:04:47.087Z,16.27
2017-11-13T20:07:16.657Z,11.50
2017-11-13T20:09:45.495Z,11.87
2017-11-13T20:12:14.348Z,9.57
2017-11-13T20:14:43.195Z,10.40
2017-11-13T20:17:12.089Z,10.13
2017-11-13T20:19:41.041Z,13.00
2017-11-13T20:22:09.873Z,8.40
2017-11-13T20:24:38.704Z,10.47
2017-11-13T20:27:07.598Z,8.40
2017-11-13T20:29:36.515Z,13.27
2017-11-13T20:32:05.344Z,9.47
2017-11-13T20:34:34.249Z,10.10
2017-11-13T20:37:03.106Z,13.03
2017-11-13T20:39:31.964Z,9.67
2017-11-13T20:42:00.814Z,9.77
2017-11-13T20:44:29.676Z,10.67
2017-11-13T20:46:58.697Z,13.40
2017-11-13T20:49:27.541Z,12.07
2017-11-13T20:51:56.379Z,15.27
2017-11-13T20:54:25.208Z,15.07
2017-11-13T20:56:54.055Z,13.77
2017-11-13T20:59:22.935Z,13.63
2017-11-13T21:01:51.775Z,13.37
2017-11-13T21:04:20.693Z,14.27
2017-11-13T21:06:50.401Z,12.30
2017-11-13T21:09:20.213Z,18.63
2017-11-13T21:11:49.817Z,16.27
2017-11-13T21:14:19.533Z,12.70
2017-11-13T21:16:49.150Z,14.90
2017-11-13T21:19:18.735Z,13.37
2017-11-13T21:21:47.569Z,18.23
2017-11-13T21:24:16.445Z,12.67
2017-11-13T21:26:45.300Z,12.77
2017-11-13T21:29:14.146Z,13.23
2017-11-13T21:31:42.998Z,11.83
2017-11-13T21:34:11.990Z,12.40
2017-11-13T21:36:41.545Z,11.20
2017-11-13T21:39:10.413Z,12.33
2017-11-13T21:41:39.252Z,11.70
2017-11-13T21:44:08.247Z,13.87
2017-11-13T21:46:37.136Z,15.07
2017-11-13T21:49:05.956Z,10.37
2017-11-13T21:51:34.824Z,11.80
2017-11-13T21:54:03.664Z,11.97
2017-11-13T21:56:32.501Z,10.77
2017-11-13T21:59:01.390Z,12.90
2017-11-13T22:01:30.380Z,11.60
2017-11-13T22:03:59.239Z,14.00
2017-11-13T22:06:28.303Z,15.77
2017-11-13T22:08:57.232Z,15.00
2017-11-13T22:11:26.055Z,11.07
2017-11-13T22:13:54.880Z,20.23
2017-11-13T22:16:23.725Z,13.17
2017-11-13T22:18:52.560Z,13.50
2017-11-13T22:21:21.674Z,12.67
2017-11-13T22:23:51.320Z,15.00
2017-11-13T22:26:20.935Z,13.50
2017-11-13T22:28:50.542Z,14.57
2017-11-13T22:31:20.152Z,15.00
2017-11-13T22:33:49.767Z,11.87
2017-11-13T22:36:18.591Z,11.47
2017-11-13T22:38:47.475Z,14.20
2017-11-13T22:41:16.316Z,11.20
2017-11-13T22:43:45.145Z,12.30
2017-11-13T22:46:14.025Z,13.00
2017-11-13T22:48:42.861Z,13.23
2017-11-13T22:51:11.692Z,11.83
2017-11-13T22:53:40.581Z,11.57
2017-11-13T22:56:09.426Z,13.50
2017-11-13T22:58:38.266Z,11.60
2017-11-13T23:01:07.145Z,13.97
2017-11-13T23:03:35.975Z,15.87
2017-11-13T23:06:04.807Z,14.63
2017-11-13T23:08:33.664Z,11.70
2017-11-13T23:11:02.606Z,14.60
2017-11-13T23:13:31.455Z,16.77
2017-11-13T23:16:00.420Z,14.37
2017-11-13T23:18:29.248Z,14.10
2017-11-13T23:20:58.177Z,13.40
2017-11-13T23:23:27.043Z,15.77
2017-11-13T23:25:55.882Z,15.00
2017-11-13T23:28:24.800Z,14.50
2017-11-13T23:30:53.667Z,13.43
2017-11-13T23:33:22.572Z,14.70
2017-11-13T23:35:52.155Z,13.40
2017-11-13T23:38:21.857Z,15.60
2017-11-13T23:40:51.430Z,20.57
2017-11-13T23:43:21.035Z,23.43
2017-11-13T23:45:50.634Z,20.40
2017-11-13T23:48:20.314Z,19.67
2017-11-13T23:50:49.167Z,17.23
2017-11-13T23:53:18.070Z,19.27
2017-11-13T23:55:46.930Z,16.97
2017-11-13T23:58:15.840Z,20.23
